createdAt,value
2022-10-15T00:01:29.379Z,14.50
2022-10-15T00:03:56.234Z,14.40
2022-10-15T00:06:23.131Z,14.40
2022-10-15T00:08:50.013Z,14.50
2022-10-15T00:11:20.145Z,14.40
2022-10-15T00:13:47.548Z,14.40
2022-10-15T00:16:16.728Z,14.40
2022-10-15T00:18:44.042Z,14.40
2022-10-15T00:21:12.919Z,14.40
2022-10-15T00:23:39.634Z,14.40
2022-10-15T00:26:09.093Z,14.40
2022-10-15T00:28:37.589Z,14.40
2022-10-15T00:31:06.295Z,14.40
2022-10-15T00:33:33.396Z,14.40
2022-10-15T00:36:01.859Z,14.40
2022-10-15T00:38:28.881Z,14.40
2022-10-15T00:40:55.915Z,14.40
2022-10-15T00:43:45.520Z,14.40
2022-10-15T00:46:18.561Z,14.40
2022-10-15T00:48:48.562Z,14.40
2022-10-15T00:51:17.654Z,14.40
2022-10-15T00:53:44.870Z,14.40
2022-10-15T00:56:12.523Z,14.40
2022-10-15T00:58:39.464Z,14.40
2022-10-15T01:01:07.711Z,14.40
2022-10-15T01:03:34.608Z,14.40
2022-10-15T01:06:01.967Z,14.40
2022-10-15T01:08:28.756Z,14.40
2022-10-15T01:11:04.866Z,14.40
2022-10-15T01:14:14.858Z,14.40
2022-10-15T01:16:49.534Z,14.40
2022-10-15T01:19:27.956Z,14.40
2022-10-15T01:22:01.718Z,14.40
2022-10-15T01:24:55.614Z,14.40
2022-10-15T01:27:32.540Z,14.30
2022-10-15T01:30:22.690Z,14.40
2022-10-15T01:33:11.868Z,14.40
2022-10-15T01:35:47.978Z,14.40
2022-10-15T01:38:25.230Z,14.40
2022-10-15T01:40:57.221Z,14.40
2022-10-15T01:43:29.074Z,14.40
2022-10-15T01:46:01.844Z,14.40
2022-10-15T01:48:30.886Z,14.40
2022-10-15T01:51:00.830Z,14.40
2022-10-15T01:53:29.101Z,14.40
2022-10-15T01:55:59.454Z,14.40
2022-10-15T01:58:27.718Z,14.30
2022-10-15T02:00:55.999Z,14.40
2022-10-15T02:03:24.608Z,14.40
2022-10-15T02:05:56.747Z,14.40
2022-10-15T02:08:33.542Z,14.30
2022-10-15T02:11:04.866Z,14.40
2022-10-15T02:13:41.029Z,14.30
2022-10-15T02:16:13.941Z,14.30
2022-10-15T02:18:51.022Z,14.40
2022-10-15T02:21:21.434Z,14.30
2022-10-15T02:23:52.342Z,14.30
2022-10-15T02:26:21.183Z,14.30
2022-10-15T02:28:53.729Z,14.30
2022-10-15T02:31:21.733Z,14.40
2022-10-15T02:33:51.950Z,14.30
2022-10-15T02:36:19.587Z,14.30
2022-10-15T02:38:47.595Z,14.40
2022-10-15T02:41:16.088Z,14.30
2022-10-15T02:43:42.866Z,14.40
2022-10-15T02:46:12.125Z,14.40
2022-10-15T02:48:38.875Z,14.30
2022-10-15T02:51:07.073Z,14.40
2022-10-15T02:53:34.085Z,14.40
2022-10-15T02:56:00.777Z,14.30
2022-10-15T02:58:27.541Z,14.40
2022-10-15T03:00:54.305Z,14.40
2022-10-15T03:03:21.082Z,14.40
2022-10-15T03:05:48.043Z,14.40
2022-10-15T03:08:16.185Z,14.40
2022-10-15T03:10:43.000Z,14.40
2022-10-15T03:13:09.700Z,14.50
2022-10-15T03:15:37.435Z,14.40
2022-10-15T03:18:04.503Z,14.40
2022-10-15T03:20:31.241Z,14.40
2022-10-15T03:22:58.007Z,14.40
2022-10-15T03:25:26.139Z,14.40
2022-10-15T03:27:52.872Z,14.40
2022-10-15T03:30:19.642Z,14.40
2022-10-15T03:32:47.090Z,14.40
2022-10-15T03:35:13.926Z,14.40
2022-10-15T03:37:40.646Z,14.40
2022-10-15T03:40:13.414Z,14.40
2022-10-15T03:42:42.584Z,14.40
2022-10-15T03:45:10.118Z,14.40
2022-10-15T03:47:36.817Z,14.50
2022-10-15T03:50:04.047Z,14.50
2022-10-15T03:52:30.772Z,14.50
2022-10-15T03:54:57.510Z,14.50
2022-10-15T03:57:24.303Z,14.50
2022-10-15T03:59:52.374Z,14.50
2022-10-15T04:02:19.146Z,14.50
2022-10-15T04:04:45.895Z,14.50
2022-10-15T04:07:12.653Z,14.50
2022-10-15T04:09:39.388Z,14.50
2022-10-15T04:12:06.424Z,14.50
2022-10-15T04:14:33.178Z,14.50
2022-10-15T04:17:01.477Z,14.50
2022-10-15T04:19:28.406Z,14.50
2022-10-15T04:21:55.179Z,14.50
2022-10-15T04:24:22.134Z,14.50
2022-10-15T04:26:48.896Z,14.50
2022-10-15T04:29:15.880Z,14.50
2022-10-15T04:31:42.708Z,14.50
2022-10-15T04:34:11.038Z,14.50
2022-10-15T04:36:38.073Z,14.50
2022-10-15T04:39:05.565Z,14.50
2022-10-15T04:41:32.816Z,14.50
2022-10-15T04:43:59.571Z,14.50
2022-10-15T04:46:26.334Z,14.50
2022-10-15T04:48:53.196Z,14.50
2022-10-15T04:51:21.473Z,14.50
2022-10-15T04:53:48.217Z,14.50
2022-10-15T04:56:16.969Z,14.50
2022-10-15T04:58:44.983Z,14.50
2022-10-15T05:01:13.559Z,14.50
2022-10-15T05:03:44.862Z,14.50
2022-10-15T05:06:14.111Z,14.60
2022-10-15T05:08:42.459Z,14.60
2022-10-15T05:11:11.685Z,14.50
2022-10-15T05:13:38.646Z,14.50
2022-10-15T05:16:13.289Z,14.50
2022-10-15T05:18:40.586Z,14.50
2022-10-15T05:21:08.117Z,14.60
2022-10-15T05:23:35.254Z,14.60
2022-10-15T05:26:06.177Z,14.60
2022-10-15T05:28:33.366Z,14.60
2022-10-15T05:31:05.011Z,14.60
2022-10-15T05:33:31.929Z,14.60
2022-10-15T05:36:07.477Z,14.60
2022-10-15T05:38:34.251Z,14.60
2022-10-15T05:41:00.966Z,14.60
2022-10-15T05:43:29.038Z,14.60
2022-10-15T05:45:56.250Z,14.60
2022-10-15T05:48:23.533Z,14.60
2022-10-15T05:50:50.251Z,14.60
2022-10-15T05:53:17.014Z,14.60
2022-10-15T05:55:43.731Z,14.60
2022-10-15T05:58:10.461Z,14.60
2022-10-15T06:00:38.545Z,14.60
2022-10-15T06:03:05.295Z,14.60
2022-10-15T06:05:32.428Z,14.60
2022-10-15T06:07:59.201Z,14.60
2022-10-15T06:10:26.197Z,14.60
2022-10-15T06:12:52.948Z,14.60
2022-10-15T06:15:19.784Z,14.60
2022-10-15T06:17:47.845Z,14.60
2022-10-15T06:20:14.691Z,14.60
2022-10-15T06:22:41.443Z,14.60
2022-10-15T06:25:09.315Z,14.60
2022-10-15T06:27:36.156Z,14.60
2022-10-15T06:30:03.229Z,14.60
2022-10-15T06:32:30.023Z,14.60
2022-10-15T06:34:58.097Z,14.60
2022-10-15T06:37:25.168Z,14.60
2022-10-15T06:39:52.119Z,14.70
2022-10-15T06:42:18.866Z,14.60
2022-10-15T06:44:45.618Z,14.60
2022-10-15T06:47:12.327Z,14.60
2022-10-15T06:49:39.076Z,14.60
2022-10-15T06:52:07.142Z,14.60
2022-10-15T06:54:33.878Z,14.60
2022-10-15T06:57:00.736Z,14.60
2022-10-15T06:59:27.463Z,14.70
2022-10-15T07:01:54.408Z,14.70
2022-10-15T07:04:22.763Z,14.60
2022-10-15T07:06:49.499Z,14.70
2022-10-15T07:09:17.726Z,14.60
2022-10-15T07:11:44.446Z,14.60
2022-10-15T07:14:11.176Z,14.60
2022-10-15T07:16:37.935Z,14.70
2022-10-15T07:19:04.822Z,14.60
2022-10-15T07:21:31.592Z,14.70
2022-10-15T07:23:58.317Z,14.70
2022-10-15T07:26:26.456Z,14.70
2022-10-15T07:28:53.241Z,14.70
2022-10-15T07:31:20.118Z,14.70
2022-10-15T07:33:46.912Z,14.70
2022-10-15T07:36:13.633Z,14.70
2022-10-15T07:38:40.361Z,14.70
2022-10-15T07:41:09.089Z,14.70
2022-10-15T07:43:37.317Z,14.70
2022-10-15T07:46:04.377Z,14.70
2022-10-15T07:48:31.781Z,14.70
2022-10-15T07:51:00.136Z,14.70
2022-10-15T07:53:27.673Z,14.70
2022-10-15T07:55:57.922Z,14.70
2022-10-15T07:58:24.647Z,14.70
2022-10-15T08:00:53.229Z,14.70
2022-10-15T08:03:19.978Z,14.80
2022-10-15T08:05:46.691Z,14.70
2022-10-15T08:08:13.425Z,14.80
2022-10-15T08:10:40.253Z,14.70
2022-10-15T08:13:06.945Z,14.80
2022-10-15T08:15:33.638Z,14.80
2022-10-15T08:18:01.719Z,14.80
2022-10-15T08:20:28.413Z,14.80
2022-10-15T08:22:55.142Z,14.80
2022-10-15T08:25:21.854Z,14.80
2022-10-15T08:27:48.583Z,14.80
2022-10-15T08:30:15.360Z,14.80
2022-10-15T08:32:42.058Z,14.80
2022-10-15T08:35:10.242Z,14.90
2022-10-15T08:37:37.012Z,14.80
2022-10-15T08:40:04.289Z,14.90
2022-10-15T08:42:35.987Z,14.90
2022-10-15T08:45:05.442Z,14.90
2022-10-15T08:47:37.245Z,14.90
2022-10-15T08:50:12.473Z,14.90
2022-10-15T08:52:43.180Z,14.90
2022-10-15T08:55:12.579Z,14.90
2022-10-15T08:57:45.737Z,14.90
2022-10-15T09:00:18.058Z,14.90
2022-10-15T09:02:52.130Z,14.90
2022-10-15T09:05:26.134Z,14.90
2022-10-15T09:08:00.701Z,14.90
2022-10-15T09:10:33.358Z,14.90
2022-10-15T09:13:03.117Z,15.00
2022-10-15T09:15:36.465Z,15.00
2022-10-15T09:18:03.869Z,15.00
2022-10-15T09:20:32.822Z,15.00
2022-10-15T09:23:03.589Z,15.00
2022-10-15T09:25:35.307Z,15.00
2022-10-15T09:28:09.059Z,15.00
2022-10-15T09:30:42.225Z,15.00
2022-10-15T09:33:22.198Z,15.00
2022-10-15T09:35:52.813Z,15.10
2022-10-15T09:38:34.470Z,15.10
2022-10-15T09:41:13.722Z,15.10
2022-10-15T09:43:40.595Z,15.10
2022-10-15T09:46:09.351Z,15.10
2022-10-15T09:48:39.999Z,15.10
2022-10-15T09:51:15.446Z,15.10
2022-10-15T09:53:52.263Z,15.10
2022-10-15T09:56:22.622Z,15.10
2022-10-15T09:58:53.014Z,15.20
2022-10-15T10:01:21.962Z,15.20
2022-10-15T10:03:53.245Z,15.20
2022-10-15T10:06:22.413Z,15.20
2022-10-15T10:08:52.988Z,15.20
2022-10-15T10:11:21.710Z,15.20
2022-10-15T10:13:53.683Z,15.20
2022-10-15T10:16:21.442Z,15.20
2022-10-15T10:19:03.444Z,15.20
2022-10-15T10:21:32.181Z,15.30
2022-10-15T10:24:20.038Z,15.30
2022-10-15T10:26:48.029Z,15.30
2022-10-15T10:29:33.060Z,15.30
2022-10-15T10:32:10.382Z,15.30
2022-10-15T10:34:37.173Z,15.40
2022-10-15T10:37:05.027Z,15.40
2022-10-15T10:39:34.514Z,15.40
2022-10-15T10:42:03.975Z,15.40
2022-10-15T10:44:32.194Z,15.40
2022-10-15T10:47:03.756Z,15.40
2022-10-15T10:49:31.693Z,15.50
2022-10-15T10:51:58.490Z,15.50
2022-10-15T10:54:26.887Z,15.50
2022-10-15T10:56:58.413Z,15.50
2022-10-15T10:59:29.478Z,15.60
2022-10-15T11:01:56.439Z,15.60
2022-10-15T11:04:25.559Z,15.60
2022-10-15T11:07:01.112Z,15.60
2022-10-15T11:09:46.012Z,15.60
2022-10-15T11:12:30.230Z,15.60
2022-10-15T11:15:03.877Z,15.60
2022-10-15T11:17:41.263Z,15.60
2022-10-15T11:23:20.708Z,15.60
2022-10-15T11:25:55.223Z,15.60
2022-10-15T11:28:35.264Z,15.60
2022-10-15T11:31:09.326Z,15.70
2022-10-15T11:33:56.690Z,15.70
2022-10-15T11:36:49.498Z,15.70
2022-10-15T11:39:29.202Z,15.70
2022-10-15T11:42:07.120Z,15.80
2022-10-15T11:44:49.433Z,15.80
2022-10-15T11:47:27.207Z,15.80
2022-10-15T11:50:08.285Z,15.90
2022-10-15T11:52:48.466Z,15.90
2022-10-15T11:55:20.567Z,15.90
2022-10-15T11:57:51.498Z,15.90
2022-10-15T12:00:31.205Z,15.90
2022-10-15T12:03:02.572Z,15.90
2022-10-15T12:05:34.999Z,15.90
2022-10-15T12:10:50.924Z,16.00
2022-10-15T12:13:25.718Z,16.00
2022-10-15T12:16:00.633Z,16.00
2022-10-15T12:18:33.635Z,16.10
2022-10-15T12:21:00.382Z,16.10
2022-10-15T12:23:41.641Z,16.10
2022-10-15T12:26:27.890Z,16.10
2022-10-15T12:28:59.413Z,16.20
2022-10-15T12:34:30.899Z,16.20
2022-10-15T12:37:06.398Z,16.20
2022-10-15T12:39:51.007Z,16.20
2022-10-15T12:42:26.229Z,16.20
2022-10-15T12:44:53.438Z,16.20
2022-10-15T12:47:48.065Z,16.30
2022-10-15T12:50:20.717Z,16.30
2022-10-15T12:52:59.605Z,16.30
2022-10-15T12:55:30.143Z,16.30
2022-10-15T12:57:59.499Z,16.30
2022-10-15T13:00:41.063Z,16.40
2022-10-15T13:03:24.870Z,16.40
2022-10-15T13:05:54.299Z,16.40
2022-10-15T13:08:24.309Z,16.40
2022-10-15T13:10:54.450Z,16.40
2022-10-15T13:13:24.169Z,16.40
2022-10-15T13:15:56.154Z,16.40
2022-10-15T13:18:25.337Z,16.50
2022-10-15T13:20:54.486Z,16.50
2022-10-15T13:23:31.592Z,16.40
2022-10-15T13:26:22.259Z,16.50
2022-10-15T13:28:49.716Z,16.50
2022-10-15T13:31:24.691Z,16.50
2022-10-15T13:33:57.333Z,16.50
2022-10-15T13:36:27.796Z,16.50
2022-10-15T13:38:58.408Z,16.50
2022-10-15T13:41:27.666Z,16.40
2022-10-15T13:43:55.359Z,16.50
2022-10-15T13:46:23.683Z,16.50
2022-10-15T13:48:56.325Z,16.50
2022-10-15T13:51:26.066Z,16.50
2022-10-15T13:53:53.717Z,16.50
2022-10-15T13:56:25.501Z,16.50
2022-10-15T13:58:53.782Z,16.50
2022-10-15T14:01:22.139Z,16.50
2022-10-15T14:03:50.584Z,16.50
2022-10-15T14:06:19.801Z,16.50
2022-10-15T14:08:50.693Z,16.50
2022-10-15T14:11:17.856Z,16.50
2022-10-15T14:13:45.482Z,16.50
2022-10-15T14:16:18.065Z,16.50
2022-10-15T14:18:49.246Z,16.50
2022-10-15T14:21:19.248Z,16.50
2022-10-15T14:23:48.944Z,16.50
2022-10-15T14:26:23.541Z,16.50
2022-10-15T14:28:51.598Z,16.60
2022-10-15T14:31:33.733Z,16.60
2022-10-15T14:34:01.046Z,16.60
2022-10-15T14:36:30.496Z,16.60
2022-10-15T14:39:25.183Z,16.60
2022-10-15T14:42:00.213Z,16.60
2022-10-15T14:44:39.807Z,16.60
2022-10-15T14:47:15.131Z,16.60
2022-10-15T14:49:42.421Z,16.60
2022-10-15T14:52:14.656Z,16.60
2022-10-15T14:54:47.007Z,16.60
2022-10-15T14:57:20.617Z,16.60
2022-10-15T14:59:47.819Z,16.60
2022-10-15T15:02:16.576Z,16.60
2022-10-15T15:04:45.695Z,16.60
2022-10-15T15:07:15.630Z,16.70
2022-10-15T15:09:47.068Z,16.60
2022-10-15T15:12:24.223Z,16.60
2022-10-15T15:14:54.142Z,16.60
2022-10-15T15:17:22.549Z,16.60
2022-10-15T15:19:50.798Z,16.60
2022-10-15T15:22:27.325Z,16.60
2022-10-15T15:24:58.056Z,16.60
2022-10-15T15:27:27.047Z,16.60
2022-10-15T15:29:55.221Z,16.60
2022-10-15T15:32:23.573Z,16.60
2022-10-15T15:34:52.313Z,16.60
2022-10-15T15:37:21.773Z,16.60
2022-10-15T15:39:49.218Z,16.60
2022-10-15T15:42:19.600Z,16.60
2022-10-15T15:44:47.004Z,16.60
2022-10-15T15:47:14.489Z,16.60
2022-10-15T15:49:41.954Z,16.60
2022-10-15T15:52:11.981Z,16.60
2022-10-15T15:54:39.161Z,16.60
2022-10-15T15:57:06.321Z,16.60
2022-10-15T15:59:34.792Z,16.60
2022-10-15T16:02:02.156Z,16.60
2022-10-15T16:04:29.267Z,16.60
2022-10-15T16:06:56.434Z,16.60
2022-10-15T16:09:23.565Z,16.60
2022-10-15T16:11:50.870Z,16.60
2022-10-15T16:14:17.984Z,16.60
2022-10-15T16:16:46.463Z,16.60
2022-10-15T16:19:13.554Z,16.60
2022-10-15T16:21:40.772Z,16.50
2022-10-15T16:24:07.855Z,16.50
2022-10-15T16:26:34.967Z,16.50
2022-10-15T16:29:02.187Z,16.50
2022-10-15T16:31:30.551Z,16.50
2022-10-15T16:33:59.150Z,16.50
2022-10-15T16:36:26.253Z,16.50
2022-10-15T16:38:53.330Z,16.50
2022-10-15T16:41:20.609Z,16.50
2022-10-15T16:43:48.645Z,16.50
2022-10-15T16:46:17.125Z,16.50
2022-10-15T16:48:44.389Z,16.50
2022-10-15T16:51:16.937Z,16.40
2022-10-15T16:53:45.693Z,16.40
2022-10-15T16:56:15.943Z,16.40
2022-10-15T16:58:43.377Z,16.40
2022-10-15T17:01:13.382Z,16.40
2022-10-15T17:03:41.523Z,16.40
2022-10-15T17:06:12.950Z,16.40
2022-10-15T17:08:43.941Z,16.40
2022-10-15T17:11:11.961Z,16.40
2022-10-15T17:13:39.281Z,16.40
2022-10-15T17:16:11.732Z,16.30
2022-10-15T17:18:38.964Z,16.30
2022-10-15T17:21:09.182Z,16.40
2022-10-15T17:23:36.634Z,16.30
2022-10-15T17:26:07.100Z,16.30
2022-10-15T17:28:34.688Z,16.30
2022-10-15T17:31:07.258Z,16.30
2022-10-15T17:33:34.830Z,16.30
2022-10-15T17:36:03.130Z,16.30
2022-10-15T17:38:30.308Z,16.30
2022-10-15T17:40:57.421Z,16.30
2022-10-15T17:43:26.191Z,16.30
2022-10-15T17:45:59.531Z,16.30
2022-10-15T17:48:26.847Z,16.30
2022-10-15T17:50:53.924Z,16.20
2022-10-15T17:53:21.373Z,16.20
2022-10-15T17:55:48.970Z,16.20
2022-10-15T17:58:16.175Z,16.20
2022-10-15T18:00:44.809Z,16.20
2022-10-15T18:03:11.967Z,16.20
2022-10-15T18:05:39.068Z,16.20
2022-10-15T18:08:06.269Z,16.20
2022-10-15T18:10:35.698Z,16.20
2022-10-15T18:13:02.811Z,16.20
2022-10-15T18:15:29.851Z,16.20
2022-10-15T18:17:58.106Z,16.20
2022-10-15T18:20:25.203Z,16.20
2022-10-15T18:22:53.434Z,16.20
2022-10-15T18:25:20.200Z,16.20
2022-10-15T18:27:46.942Z,16.20
2022-10-15T18:30:13.707Z,16.20
2022-10-15T18:32:40.461Z,16.20
2022-10-15T18:35:08.925Z,16.10
2022-10-15T18:37:35.724Z,16.10
2022-10-15T18:40:04.769Z,16.10
2022-10-15T18:42:31.567Z,16.10
2022-10-15T18:44:58.295Z,16.10
2022-10-15T18:47:25.089Z,16.10
2022-10-15T18:49:52.379Z,16.10
2022-10-15T18:52:38.876Z,16.10
2022-10-15T18:55:08.085Z,16.10
2022-10-15T18:57:34.885Z,16.10
2022-10-15T19:00:01.862Z,16.10
2022-10-15T19:02:28.645Z,16.10
2022-10-15T19:04:55.376Z,16.10
2022-10-15T19:07:23.452Z,16.10
2022-10-15T19:09:50.215Z,16.10
2022-10-15T19:12:16.939Z,16.10
2022-10-15T19:14:44.609Z,16.10
2022-10-15T19:17:11.402Z,16.00
2022-10-15T19:19:38.146Z,16.00
2022-10-15T19:22:05.316Z,16.10
2022-10-15T19:24:33.415Z,16.00
2022-10-15T19:27:00.305Z,16.00
2022-10-15T19:29:30.391Z,16.00
2022-10-15T19:32:01.098Z,15.90
2022-10-15T19:34:27.910Z,15.90
2022-10-15T19:36:54.678Z,15.90
2022-10-15T19:39:23.865Z,15.90
2022-10-15T19:41:52.545Z,15.90
2022-10-15T19:44:21.107Z,15.90
2022-10-15T19:46:47.844Z,15.90
2022-10-15T19:49:14.611Z,16.00
2022-10-15T19:51:41.659Z,15.90
2022-10-15T19:54:08.860Z,15.90
2022-10-15T19:56:35.631Z,15.90
2022-10-15T19:59:05.440Z,15.90
2022-10-15T20:01:32.854Z,15.90
2022-10-15T20:04:04.759Z,15.90
2022-10-15T20:06:33.923Z,15.90
2022-10-15T20:09:00.679Z,15.90
2022-10-15T20:11:27.448Z,15.90
2022-10-15T20:13:54.210Z,15.90
2022-10-15T20:16:23.358Z,15.90
2022-10-15T20:18:50.997Z,15.90
2022-10-15T20:21:17.905Z,15.90
2022-10-15T20:23:45.460Z,15.90
2022-10-15T20:26:14.434Z,15.90
2022-10-15T20:28:43.676Z,15.90
2022-10-15T20:31:12.382Z,15.90
2022-10-15T20:33:40.835Z,15.90
2022-10-15T20:36:09.501Z,15.90
2022-10-15T20:38:36.811Z,15.90
2022-10-15T20:41:07.601Z,15.90
2022-10-15T20:43:34.468Z,15.80
2022-10-15T20:46:01.501Z,15.90
2022-10-15T20:48:28.549Z,15.90
2022-10-15T20:50:56.650Z,15.80
2022-10-15T20:53:24.170Z,15.80
2022-10-15T20:55:51.094Z,15.80
2022-10-15T20:58:17.910Z,15.80
2022-10-15T21:00:44.848Z,15.80
2022-10-15T21:03:11.742Z,15.80
2022-10-15T21:05:38.901Z,15.80
2022-10-15T21:08:07.086Z,15.80
2022-10-15T21:10:33.960Z,15.80
2022-10-15T21:13:00.695Z,15.80
2022-10-15T21:15:27.518Z,15.80
2022-10-15T21:17:54.311Z,15.90
2022-10-15T21:20:21.117Z,15.80
2022-10-15T21:22:47.846Z,15.80
2022-10-15T21:25:16.066Z,15.80
2022-10-15T21:27:42.797Z,15.80
2022-10-15T21:30:10.449Z,15.70
2022-10-15T21:32:37.187Z,15.80
2022-10-15T21:35:04.383Z,15.80
2022-10-15T21:37:33.991Z,15.80
2022-10-15T21:40:00.751Z,15.80
2022-10-15T21:42:30.150Z,15.80
2022-10-15T21:44:56.951Z,15.70
2022-10-15T21:47:24.679Z,15.70
2022-10-15T21:49:51.503Z,15.70
2022-10-15T21:52:18.255Z,15.70
2022-10-15T21:54:44.963Z,15.70
2022-10-15T21:57:11.699Z,15.70
2022-10-15T21:59:39.793Z,15.70
2022-10-15T22:02:06.599Z,15.70
2022-10-15T22:04:34.195Z,15.70
2022-10-15T22:07:01.014Z,15.70
2022-10-15T22:09:27.967Z,15.70
2022-10-15T22:11:54.781Z,15.70
2022-10-15T22:14:21.667Z,15.70
2022-10-15T22:16:49.800Z,15.60
2022-10-15T22:19:16.634Z,15.60
2022-10-15T22:21:43.442Z,15.60
2022-10-15T22:24:13.347Z,15.60
2022-10-15T22:26:42.537Z,15.60
2022-10-15T22:29:15.665Z,15.60
2022-10-15T22:31:42.406Z,15.60
2022-10-15T22:34:10.576Z,15.50
2022-10-15T22:36:37.318Z,15.50
2022-10-15T22:39:05.643Z,15.50
2022-10-15T22:41:34.626Z,15.50
2022-10-15T22:44:01.754Z,15.50
2022-10-15T22:46:31.190Z,15.50
2022-10-15T22:48:57.930Z,15.50
2022-10-15T22:51:26.035Z,15.50
2022-10-15T22:53:55.110Z,15.40
2022-10-15T22:56:21.866Z,15.50
2022-10-15T22:58:48.778Z,15.50
2022-10-15T23:01:17.760Z,15.50
2022-10-15T23:03:46.926Z,15.50
2022-10-15T23:06:14.871Z,15.50
2022-10-15T23:08:43.305Z,15.40
2022-10-15T23:11:12.631Z,15.40
2022-10-15T23:13:40.749Z,15.30
2022-10-15T23:16:13.546Z,15.30
2022-10-15T23:18:40.742Z,15.30
2022-10-15T23:21:12.875Z,15.30
2022-10-15T23:23:39.766Z,15.30
2022-10-15T23:26:10.560Z,15.30
2022-10-15T23:28:37.566Z,15.30
2022-10-15T23:31:04.482Z,15.30
2022-10-15T23:33:31.370Z,15.30
2022-10-15T23:36:00.296Z,15.30
2022-10-15T23:38:27.608Z,15.20
2022-10-15T23:41:00.254Z,15.20
2022-10-15T23:43:28.567Z,15.20
2022-10-15T23:45:55.757Z,15.20
2022-10-15T23:48:22.931Z,15.20
2022-10-15T23:50:49.682Z,15.10
2022-10-15T23:53:16.896Z,15.10
2022-10-15T23:55:43.779Z,15.10
2022-10-15T23:58:11.203Z,15.10
